Airport View

Enter AWOS ICAO identifier for current METAR.

ex. KFNL

KFWB 251215Z AUTO 00000KT M1/4SM FG OVC002 13/13 A3000 RMK AO2

25 Sep 2020 12:25

Frequency: 119.725

Phone: 417-272-3922

Other Area AWOS: KBBG - KHRO - KHFJ - KSGF

TAF KBBG 251122Z 2512/2612 14003KT 1 1/2SM BR OVC002 FM251300 14003KT 3SM BR BKN005 FM251400 16004KT P6SM FEW040 SCT200